createdAt,value
2023-02-16T00:01:50.373Z,-0.35
2023-02-16T00:11:50.646Z,-0.40
2023-02-16T00:21:50.606Z,-0.72
2023-02-16T00:31:50.541Z,-0.86
2023-02-16T00:41:50.564Z,-0.83
2023-02-16T00:51:51.504Z,-0.81
2023-02-16T01:01:50.303Z,-1.06
2023-02-16T01:11:50.162Z,-1.10
2023-02-16T01:21:50.125Z,-1.23
2023-02-16T01:31:50.267Z,-1.27
2023-02-16T01:41:50.033Z,-1.51
2023-02-16T01:51:50.974Z,-1.71
2023-02-16T02:11:49.997Z,-1.64
2023-02-16T02:21:49.831Z,-1.94
2023-02-16T02:31:49.757Z,-1.73
2023-02-16T02:41:49.589Z,-1.62
2023-02-16T02:51:49.540Z,-1.71
2023-02-16T03:01:49.445Z,-1.97
2023-02-16T03:11:49.348Z,-2.15
2023-02-16T03:21:49.252Z,-2.16
2023-02-16T03:31:49.105Z,-2.15
2023-02-16T03:41:48.922Z,-2.35
2023-02-16T03:51:48.696Z,-2.42
2023-02-16T04:01:48.610Z,-2.39
2023-02-16T04:11:48.354Z,-2.36
2023-02-16T04:21:48.124Z,-2.27
2023-02-16T04:31:48.146Z,-2.33
2023-02-16T04:41:47.741Z,-2.32
2023-02-16T04:51:47.561Z,-2.53
2023-02-16T05:01:47.666Z,-2.79
2023-02-16T05:11:47.103Z,-2.83
2023-02-16T05:21:46.854Z,-2.97
2023-02-16T05:31:46.744Z,-2.77
2023-02-16T05:41:46.607Z,-3.08
2023-02-16T05:51:46.032Z,-3.10
2023-02-16T06:01:47.331Z,-2.82
2023-02-16T06:11:45.454Z,-3.00
2023-02-16T06:21:45.182Z,-2.60
2023-02-16T06:31:44.948Z,-2.88
2023-02-16T06:41:44.632Z,-2.28
2023-02-16T06:51:44.396Z,-2.03
2023-02-16T07:01:45.313Z,-2.09
2023-02-16T07:11:44.022Z,-1.86
2023-02-16T07:31:43.953Z,-1.36
2023-02-16T07:41:43.756Z,-0.99
2023-02-16T07:51:43.753Z,-0.93
2023-02-16T08:01:43.749Z,-0.62
2023-02-16T08:11:43.694Z,-0.58
2023-02-16T08:21:43.670Z,-0.49
2023-02-16T08:31:43.716Z,-0.49
2023-02-16T08:41:43.565Z,-0.03
2023-02-16T08:51:43.505Z,0.15
2023-02-16T09:01:43.575Z,0.50
2023-02-16T09:11:43.634Z,0.70
2023-02-16T09:21:43.651Z,1.08
2023-02-16T09:31:43.706Z,1.12
2023-02-16T09:41:43.750Z,1.74
2023-02-16T09:51:43.832Z,2.66
2023-02-16T10:01:44.348Z,4.34
2023-02-16T10:11:44.536Z,5.19
2023-02-16T10:21:44.644Z,6.38
2023-02-16T10:41:45.449Z,6.04
2023-02-16T10:51:45.850Z,6.05
2023-02-16T11:01:46.347Z,6.36
2023-02-16T11:11:47.169Z,6.68
2023-02-16T11:21:47.452Z,6.94
2023-02-16T11:31:47.993Z,7.06
2023-02-16T11:41:48.469Z,7.30
2023-02-16T11:51:49.140Z,7.23
2023-02-16T12:01:49.700Z,7.39
2023-02-16T12:11:50.262Z,7.42
2023-02-16T12:21:50.878Z,7.60
2023-02-16T12:31:51.576Z,7.58
2023-02-16T12:41:52.117Z,7.68
2023-02-16T12:51:52.704Z,7.99
2023-02-16T13:01:53.283Z,8.01
2023-02-16T13:11:53.838Z,8.26
2023-02-16T13:21:54.415Z,8.26
2023-02-16T13:31:55.191Z,8.47
2023-02-16T13:41:56.721Z,8.51
2023-02-16T13:51:56.395Z,8.58
2023-02-16T14:01:57.120Z,8.56
2023-02-16T14:11:57.842Z,8.81
2023-02-16T14:21:58.528Z,8.82
2023-02-16T14:31:59.314Z,8.85
2023-02-16T14:42:00.016Z,8.82
2023-02-16T14:52:00.903Z,8.75
2023-02-16T15:02:01.536Z,8.88
2023-02-16T15:12:02.750Z,8.77
2023-02-16T15:22:03.026Z,8.82
2023-02-16T15:32:03.869Z,8.68
2023-02-16T15:42:04.531Z,8.55
2023-02-16T15:52:05.355Z,8.37
2023-02-16T16:02:06.174Z,8.13
2023-02-16T16:12:06.854Z,7.89
2023-02-16T16:22:07.763Z,7.60
2023-02-16T16:32:08.696Z,7.41
2023-02-16T16:42:09.237Z,7.11
2023-02-16T16:52:09.715Z,6.95
2023-02-16T17:02:12.548Z,6.85
2023-02-16T17:12:12.660Z,6.67
2023-02-16T17:22:11.869Z,6.34
2023-02-16T17:32:12.707Z,6.21
2023-02-16T17:42:13.259Z,6.29
2023-02-16T17:52:13.646Z,6.37
2023-02-16T18:02:14.587Z,6.01
2023-02-16T18:12:15.103Z,6.00
2023-02-16T18:22:15.703Z,5.68
2023-02-16T18:32:16.191Z,5.59
2023-02-16T18:42:17.006Z,5.36
2023-02-16T18:52:17.629Z,5.58
2023-02-16T19:02:18.157Z,5.52
2023-02-16T19:22:19.277Z,4.45
2023-02-16T19:32:19.801Z,4.89
2023-02-16T19:42:20.246Z,4.62
2023-02-16T19:52:20.738Z,4.73
2023-02-16T20:02:21.295Z,4.26
2023-02-16T20:12:21.751Z,4.21
2023-02-16T20:22:24.629Z,3.92
2023-02-16T20:32:23.697Z,3.59
2023-02-16T20:42:23.004Z,3.52
2023-02-16T20:52:23.346Z,3.12
2023-02-16T21:02:23.858Z,2.99
2023-02-16T21:12:25.053Z,2.55
2023-02-16T21:22:24.385Z,2.69
2023-02-16T21:32:24.694Z,2.34
2023-02-16T21:42:25.190Z,2.62
2023-02-16T21:52:25.258Z,2.23
2023-02-16T22:02:25.621Z,2.25
2023-02-16T22:12:25.985Z,1.92
2023-02-16T22:22:26.293Z,1.72
2023-02-16T22:32:26.623Z,1.29
2023-02-16T22:42:26.956Z,1.84
2023-02-16T22:52:27.299Z,1.42
2023-02-16T23:02:27.693Z,1.26
2023-02-16T23:12:28.055Z,1.37
2023-02-16T23:22:28.157Z,1.12
2023-02-16T23:32:28.456Z,1.08
2023-02-16T23:42:28.731Z,0.80
2023-02-16T23:52:29.035Z,0.89
